Terminal Aerodrome Forecast
Issued by NWS

Current Version | Previous Version | Text Only | Print | Product List | Glossary On
Versions: 1 2 3 4 5 6 7 8 9 10 11 12
000
FTUS46 KSGX 021123
TAFTRM
TAF
KTRM 021123Z 0212/0312 VRB06KT P6SM SCT250
     FM022000 14010KT P6SM FEW250
     FM030400 33010G18KT P6SM FEW250
     FM031000 VRB06KT P6SM FEW250=

USA.gov is the U.S. government's official web portal to all federal, state and local government web resources and services.